Time;durP1;ratioP1;P1;durP2;ratioP2;P2;SDS_P1;SDS_P2;PMS_P1;PMS_P2;Temp;Humidity;BMP_temperature;BMP_pressure;BME280_temperature;BME280_humidity;BME280_pressure;Samples;Min_cycle;Max_cycle;Signal;HPM_P1;HPM_P2
2021/10/08 00:00:24;;;;;;;;;21.75;15.50;;;;;13.56;76.35;102448.75;5080842;27;45307;-68
2021/10/08 00:02:49;;;;;;;;;15.50;12.00;;;;;13.55;76.69;102438.31;5081261;27;45320;-69
2021/10/08 00:05:15;;;;;;;;;16.75;16.00;;;;;13.52;76.50;102443.59;5080212;28;46394;-68
2021/10/08 00:07:40;;;;;;;;;20.25;17.50;;;;;13.48;76.21;102439.28;5080850;27;45317;-68
2021/10/08 00:10:06;;;;;;;;;13.00;10.00;;;;;13.47;77.30;102446.25;5080863;27;45470;-68
2021/10/08 00:12:32;;;;;;;;;16.00;13.00;;;;;13.46;77.03;102444.53;5075099;27;45412;-68
2021/10/08 00:14:57;;;;;;;;;14.75;13.25;;;;;13.44;76.94;102441.09;5077868;27;46422;-68
2021/10/08 00:17:22;;;;;;;;;12.00;12.00;;;;;13.42;76.81;102440.25;5071194;27;45481;-68
2021/10/08 00:19:48;;;;;;;;;13.50;12.50;;;;;13.41;77.26;102441.09;5074239;28;45337;-68
2021/10/08 00:22:13;;;;;;;;;15.75;12.50;;;;;13.38;77.04;102438.53;5078338;27;45386;-68
2021/10/08 00:24:39;;;;;;;;;16.00;12.75;;;;;13.36;77.46;102441.16;5077924;27;45705;-69
2021/10/08 00:27:04;;;;;;;;;13.75;13.00;;;;;13.35;77.52;102446.41;5078099;27;45345;-69
2021/10/08 00:29:29;;;;;;;;;15.25;15.25;;;;;13.32;77.49;102451.66;5079091;27;45413;-69
2021/10/08 00:31:55;;;;;;;;;14.00;11.00;;;;;13.29;77.38;102447.34;5080381;27;45358;-69
2021/10/08 00:34:20;;;;;;;;;19.75;14.50;;;;;13.28;77.69;102439.53;5077773;27;45849;-68
2021/10/08 00:36:46;;;;;;;;;13.00;12.00;;;;;13.27;78.03;102453.47;5078170;27;45700;-70
2021/10/08 00:39:11;;;;;;;;;20.75;14.75;;;;;13.24;77.84;102450.91;5076606;28;45480;-71
2021/10/08 00:41:37;;;;;;;;;16.25;13.50;;;;;13.23;78.08;102454.38;5077959;27;45414;-70
2021/10/08 00:44:02;;;;;;;;;14.75;14.00;;;;;13.19;78.03;102450.91;5076872;27;45650;-69
2021/10/08 00:46:28;;;;;;;;;17.75;13.25;;;;;13.20;78.30;102455.25;5077111;27;45519;-71
2021/10/08 00:48:54;;;;;;;;;18.75;16.25;;;;;13.19;78.21;102456.13;5078882;27;45327;-70
2021/10/08 00:51:22;;;;;;;;;22.25;16.00;;;;;13.18;78.44;102453.53;5080001;27;45544;-70
2021/10/08 00:53:47;;;;;;;;;15.75;15.50;;;;;13.16;78.77;102457.88;5079694;27;46332;-70
2021/10/08 00:56:17;;;;;;;;;19.00;16.75;;;;;13.15;79.43;102453.56;5080117;27;45195;-70
2021/10/08 00:58:43;;;;;;;;;17.75;17.00;;;;;13.12;79.52;102458.81;5079993;27;45251;-70
2021/10/08 01:01:09;;;;;;;;;19.25;18.50;;;;;13.08;79.54;102461.47;5079990;27;45471;-71
2021/10/08 01:03:37;;;;;;;;;20.00;14.00;;;;;13.07;79.49;102456.25;5078427;28;47729;-70
2021/10/08 01:06:03;;;;;;;;;21.00;18.75;;;;;13.04;79.67;102462.38;5083190;27;45219;-70
2021/10/08 01:08:28;;;;;;;;;18.50;18.00;;;;;13.04;79.80;102462.38;5086757;28;45469;-69
2021/10/08 01:10:56;;;;;;;;;22.75;20.00;;;;;13.00;80.11;102463.25;5086935;27;45339;-70
2021/10/08 01:13:21;;;;;;;;;22.25;18.50;;;;;12.97;80.14;102465.91;5082128;28;45951;-69
2021/10/08 01:15:47;;;;;;;;;23.75;19.50;;;;;12.94;80.80;102459.84;5086582;27;45314;-69
2021/10/08 01:18:12;;;;;;;;;28.75;20.00;;;;;12.92;81.10;102459.88;5074526;27;45264;-69
2021/10/08 01:20:38;;;;;;;;;23.25;19.00;;;;;12.90;81.02;102453.81;5086275;27;45455;-68
2021/10/08 01:23:04;;;;;;;;;21.50;18.25;;;;;12.87;81.11;102459.06;5086349;27;45464;-68
2021/10/08 01:25:32;;;;;;;;;18.25;16.00;;;;;12.84;81.27;102459.09;5086569;28;45244;-68
2021/10/08 01:27:59;;;;;;;;;25.75;23.75;;;;;12.83;81.41;102449.53;5086361;27;45446;-67
2021/10/08 01:30:26;;;;;;;;;23.00;20.50;;;;;12.83;81.44;102451.28;5086596;27;45182;-68
2021/10/08 01:32:52;;;;;;;;;25.75;20.00;;;;;12.80;81.48;102455.63;5086132;27;45460;-68
2021/10/08 01:35:18;;;;;;;;;27.75;22.75;;;;;12.79;81.60;102455.63;5086210;27;45434;-68
2021/10/08 01:37:44;;;;;;;;;20.75;19.25;;;;;12.76;81.88;102446.09;5086418;28;45422;-71
2021/10/08 01:40:10;;;;;;;;;19.25;17.75;;;;;12.76;81.63;102453.06;5086522;27;45486;-70
2021/10/08 01:42:36;;;;;;;;;26.25;22.50;;;;;12.75;81.36;102449.59;5085899;27;46137;-70
2021/10/08 01:45:02;;;;;;;;;21.00;19.50;;;;;12.76;81.25;102455.69;5085733;27;45310;-70
2021/10/08 01:47:28;;;;;;;;;21.50;20.00;;;;;12.75;81.52;102453.94;5085365;27;45575;-70
2021/10/08 01:49:54;;;;;;;;;20.00;18.75;;;;;12.73;81.70;102447.88;5085827;27;45385;-70
2021/10/08 01:52:20;;;;;;;;;22.50;21.00;;;;;12.74;81.87;102454.81;5085779;27;46756;-70
2021/10/08 01:54:46;;;;;;;;;29.50;22.25;;;;;12.74;81.83;102457.44;5085796;27;45852;-70
2021/10/08 01:57:11;;;;;;;;;19.25;19.25;;;;;12.74;81.93;102458.31;5086164;27;45325;-70
2021/10/08 01:59:37;;;;;;;;;23.75;20.75;;;;;12.74;81.94;102462.66;5086157;27;45503;-70
2021/10/08 02:02:02;;;;;;;;;20.25;20.25;;;;;12.71;82.24;102458.34;5085857;27;45414;-70
2021/10/08 02:04:28;;;;;;;;;21.75;18.25;;;;;12.70;82.26;102450.53;5085790;27;45316;-70
2021/10/08 02:06:53;;;;;;;;;17.75;17.75;;;;;12.69;82.75;102451.41;5086015;27;45252;-70
2021/10/08 02:09:19;;;;;;;;;19.75;19.00;;;;;12.67;82.77;102455.78;5086101;27;45299;-70
2021/10/08 02:11:44;;;;;;;;;23.00;19.25;;;;;12.64;82.80;102451.44;5085376;27;45365;-70
2021/10/08 02:14:09;;;;;;;;;25.25;22.00;;;;;12.63;82.94;102457.53;5086036;27;45312;-70
2021/10/08 02:16:35;;;;;;;;;30.00;21.75;;;;;12.63;82.83;102454.06;5084302;27;45289;-71
2021/10/08 02:19:00;;;;;;;;;28.00;20.75;;;;;12.61;82.84;102455.81;5070737;28;45158;-70
2021/10/08 02:21:26;;;;;;;;;26.50;22.50;;;;;12.60;83.29;102456.69;5082421;27;45220;-69
2021/10/08 02:23:51;;;;;;;;;24.25;19.50;;;;;12.57;83.50;102451.50;5082454;27;45344;-69
2021/10/08 02:26:17;;;;;;;;;17.75;16.75;;;;;12.57;83.28;102448.88;5082450;27;45161;-70
2021/10/08 02:28:43;;;;;;;;;23.25;16.75;;;;;12.57;83.60;102451.50;5082341;27;45211;-69
2021/10/08 02:31:09;;;;;;;;;22.00;20.75;;;;;12.55;83.77;102450.66;5082046;27;45311;-69
2021/10/08 02:33:35;;;;;;;;;24.75;22.00;;;;;12.53;83.76;102448.06;5082388;28;45278;-69
2021/10/08 02:36:02;;;;;;;;;18.50;16.25;;;;;12.52;83.53;102445.47;5081859;27;45338;-69
2021/10/08 02:38:28;;;;;;;;;19.00;16.75;;;;;12.49;83.70;102456.78;5082384;27;45457;-69
2021/10/08 02:40:54;;;;;;;;;22.25;16.50;;;;;12.44;82.93;102451.63;5081991;27;45306;-70
2021/10/08 02:43:19;;;;;;;;;22.25;18.50;;;;;12.40;82.78;102456.84;5082129;27;45305;-70
2021/10/08 02:45:44;;;;;;;;;15.25;12.50;;;;;12.35;84.11;102446.44;5080677;27;45251;-71
2021/10/08 02:48:10;;;;;;;;;16.25;14.25;;;;;12.33;83.84;102445.59;5081859;27;45421;-70
2021/10/08 02:50:36;;;;;;;;;21.00;20.00;;;;;12.33;84.31;102448.22;5081255;27;45244;-65
2021/10/08 02:53:01;;;;;;;;;21.50;17.00;;;;;12.33;84.13;102444.72;5081966;27;45239;-65
2021/10/08 02:55:26;;;;;;;;;18.00;17.50;;;;;12.30;84.48;102450.84;5081575;27;45243;-66
2021/10/08 02:57:52;;;;;;;;;19.75;16.00;;;;;12.29;84.56;102445.63;5082135;27;45287;-66
2021/10/08 03:00:17;;;;;;;;;15.00;13.25;;;;;12.27;84.78;102445.66;5080238;28;45851;-66
2021/10/08 03:02:42;;;;;;;;;18.25;17.75;;;;;12.24;84.47;102450.03;5081934;27;45220;-67
2021/10/08 03:05:08;;;;;;;;;18.00;13.75;;;;;12.20;85.92;102446.56;5081375;27;45355;-66
2021/10/08 03:07:34;;;;;;;;;18.75;12.25;;;;;12.18;84.94;102445.69;5097587;27;45351;-67
2021/10/08 03:10:00;;;;;;;;;23.00;17.50;;;;;12.17;85.56;102446.59;5081497;27;45215;-66
2021/10/08 03:12:25;;;;;;;;;21.75;17.25;;;;;12.15;84.97;102443.97;5081264;27;46451;-66
2021/10/08 03:14:51;;;;;;;;;18.75;16.50;;;;;12.14;85.47;102444.00;5081574;27;45401;-67
2021/10/08 03:17:16;;;;;;;;;22.00;17.25;;;;;12.14;85.20;102444.88;5075284;27;45392;-68
2021/10/08 03:19:42;;;;;;;;;20.25;16.25;;;;;12.16;85.01;102447.44;5075711;28;45441;-68
2021/10/08 03:22:11;;;;;;;;;19.00;17.75;;;;;12.14;85.10;102452.69;5081629;27;45446;-66
2021/10/08 03:24:36;;;;;;;;;23.50;18.50;;;;;12.10;nan;102448.38;5081448;27;45550;-66
2021/10/08 03:27:02;;;;;;;;;17.25;15.75;;;;;12.07;84.76;102443.19;5081515;27;45412;-67
2021/10/08 03:29:28;;;;;;;;;23.50;17.00;;;;;12.04;85.69;102447.56;5080896;27;46807;-67
2021/10/08 03:31:53;;;;;;;;;26.75;23.50;;;;;12.03;85.63;102444.09;5081338;27;45219;-66
2021/10/08 03:34:19;;;;;;;;;25.50;19.25;;;;;12.00;85.36;102451.91;5081026;27;45160;-66
2021/10/08 03:36:53;;;;;;;;;31.00;25.50;;;;;12.00;85.75;102445.81;5081066;28;45560;-67
2021/10/08 03:39:22;;;;;;;;;24.50;23.00;;;;;11.99;86.13;102454.50;5080994;27;46236;-67
2021/10/08 03:41:49;;;;;;;;;31.25;21.25;;;;;11.97;86.59;102451.06;5080587;27;45964;-67
2021/10/08 03:44:15;;;;;;;;;29.25;21.50;;;;;11.95;87.05;102453.66;5080054;27;45491;-67
2021/10/08 03:46:51;;;;;;;;;29.00;24.00;;;;;11.95;86.60;102452.81;5077390;27;46326;-66
2021/10/08 03:49:17;;;;;;;;;35.50;25.25;;;;;11.93;86.67;102457.16;5079863;27;46012;-67
2021/10/08 03:51:44;;;;;;;;;29.50;23.75;;;;;11.91;86.54;102456.31;5077493;28;45270;-67
2021/10/08 03:54:11;;;;;;;;;28.00;24.25;;;;;11.87;86.91;102453.72;5078968;27;45330;-67
2021/10/08 03:56:37;;;;;;;;;28.75;22.25;;;;;11.86;86.75;102456.34;5077699;27;45325;-67
2021/10/08 03:59:02;;;;;;;;;36.75;28.25;;;;;11.84;86.51;102452.88;5080070;27;48012;-67
2021/10/08 04:01:29;;;;;;;;;29.75;25.50;;;;;11.84;86.92;102451.13;5080596;28;45429;-67
2021/10/08 04:03:54;;;;;;;;;32.25;26.50;;;;;11.85;87.61;102455.47;5080096;27;45330;-67
2021/10/08 04:06:20;;;;;;;;;26.25;20.75;;;;;11.83;87.50;102454.63;5080809;27;45312;-68
2021/10/08 04:08:46;;;;;;;;;24.75;23.00;;;;;11.82;87.20;102460.72;5080350;27;46074;-68
2021/10/08 04:11:11;;;;;;;;;31.75;28.75;;;;;11.81;86.87;102456.38;5080300;27;45347;-68
2021/10/08 04:13:37;;;;;;;;;29.75;23.00;;;;;11.81;87.37;102461.59;5080003;27;45256;-68
2021/10/08 04:16:03;;;;;;;;;34.00;24.25;;;;;11.79;87.44;102457.22;5080762;27;45394;-68
2021/10/08 04:18:28;;;;;;;;;36.25;25.00;;;;;11.76;87.47;102458.06;5068589;28;47421;-76
2021/10/08 04:20:54;;;;;;;;;33.25;23.50;;;;;11.77;87.44;102466.75;5080108;28;45212;-69
2021/10/08 04:23:20;;;;;;;;;30.50;26.25;;;;;11.77;87.68;102464.16;5080443;27;45371;-69
2021/10/08 04:25:47;;;;;;;;;35.25;29.00;;;;;11.75;87.97;102468.50;5080623;28;45466;-68
2021/10/08 04:28:12;;;;;;;;;27.00;22.25;;;;;11.75;88.34;102468.50;5080110;27;45276;-68
2021/10/08 04:30:38;;;;;;;;;31.25;26.25;;;;;11.74;87.99;102470.25;5080366;27;45235;-67
2021/10/08 04:33:13;;;;;;;;;29.50;25.50;;;;;11.72;88.59;102469.38;5080270;27;45337;-73
2021/10/08 04:35:38;;;;;;;;;31.50;25.75;;;;;11.67;88.09;102465.09;5079815;27;45331;-65
2021/10/08 04:38:03;;;;;;;;;37.00;29.75;;;;;11.72;87.96;102466.78;5079962;27;46626;-68
2021/10/08 04:40:29;;;;;;;;;37.00;28.00;;;;;11.71;88.18;102467.66;5079186;27;45276;-69
2021/10/08 04:42:54;;;;;;;;;32.25;27.75;;;;;11.71;88.19;102475.47;5079981;27;45247;-69
2021/10/08 04:45:19;;;;;;;;;33.75;23.75;;;;;11.71;88.11;102470.25;5079268;27;45484;-68
2021/10/08 04:47:45;;;;;;;;;36.75;29.00;;;;;11.71;88.00;102465.06;5079146;27;45478;-68
2021/10/08 04:50:10;;;;;;;;;34.75;27.75;;;;;11.70;86.98;102465.94;5079425;27;45517;-69
2021/10/08 04:52:36;;;;;;;;;31.75;26.50;;;;;11.68;88.10;102465.06;5078739;28;45173;-67
2021/10/08 04:55:01;;;;;;;;;35.25;23.75;;;;;11.69;88.34;102471.16;5079558;28;45220;-66
2021/10/08 04:57:26;;;;;;;;;27.00;23.50;;;;;11.69;88.32;102472.00;5079336;27;46227;-68
2021/10/08 04:59:52;;;;;;;;;34.00;25.75;;;;;11.68;88.89;102462.47;5079944;27;45217;-68
2021/10/08 05:02:17;;;;;;;;;29.50;26.75;;;;;11.69;88.74;102465.94;5079514;27;45151;-68
2021/10/08 05:04:42;;;;;;;;;33.00;27.00;;;;;11.65;88.64;102469.44;5079454;27;45347;-67
2021/10/08 05:07:08;;;;;;;;;30.25;24.75;;;;;11.64;88.72;102458.16;5079653;27;45376;-67
2021/10/08 05:09:33;;;;;;;;;40.50;30.25;;;;;11.65;88.58;102474.66;5079419;27;45161;-68
2021/10/08 05:11:58;;;;;;;;;33.25;28.50;;;;;11.64;88.92;102468.56;5079205;27;45231;-68
2021/10/08 05:14:24;;;;;;;;;28.75;23.25;;;;;11.63;89.03;102479.84;5079567;27;45421;-68
2021/10/08 05:16:49;;;;;;;;;27.75;24.50;;;;;11.63;88.47;102476.38;5076657;27;45287;-67
2021/10/08 05:19:15;;;;;;;;;40.75;35.50;;;;;11.61;88.87;102472.91;5069056;28;45349;-67
2021/10/08 05:21:40;;;;;;;;;30.25;26.25;;;;;11.61;89.42;102471.16;5079320;27;45471;-67
2021/10/08 05:24:05;;;;;;;;;33.75;24.75;;;;;11.58;89.75;102472.03;5079397;27;45305;-67
2021/10/08 05:26:31;;;;;;;;;29.50;27.25;;;;;11.56;89.40;102478.13;5078928;27;48508;-67
2021/10/08 05:28:56;;;;;;;;;33.00;30.25;;;;;11.55;89.23;102484.22;5079455;28;45417;-66
2021/10/08 05:31:22;;;;;;;;;35.75;27.75;;;;;11.51;90.47;102479.88;5079167;27;45388;-66
2021/10/08 05:33:47;;;;;;;;;30.75;29.75;;;;;11.48;89.17;102482.50;5076766;27;45555;-67
2021/10/08 05:36:12;;;;;;;;;34.25;27.00;;;;;11.46;89.92;102477.31;5077832;27;46008;-68
2021/10/08 05:38:38;;;;;;;;;38.50;29.75;;;;;11.44;89.87;102480.78;5078545;27;45397;-69
2021/10/08 05:41:03;;;;;;;;;32.00;25.75;;;;;11.45;90.31;102478.19;5079147;27;45481;-69
2021/10/08 05:43:29;;;;;;;;;29.50;23.00;;;;;11.44;89.91;102491.22;5079253;27;45428;-67
2021/10/08 05:45:54;;;;;;;;;33.25;27.00;;;;;11.43;90.39;102479.06;5077413;27;46207;-79
2021/10/08 05:48:20;;;;;;;;;27.75;25.25;;;;;11.41;89.99;102485.97;5079460;28;45504;-65
2021/10/08 05:50:45;;;;;;;;;32.00;29.25;;;;;11.40;90.23;102485.13;5078487;27;45303;-65
2021/10/08 05:53:11;;;;;;;;;27.00;23.50;;;;;11.41;90.62;102493.78;5081298;27;45282;-65
2021/10/08 05:55:37;;;;;;;;;30.25;25.50;;;;;11.42;90.53;102482.53;5080513;28;47133;-65
2021/10/08 05:58:03;;;;;;;;;41.50;32.25;;;;;11.43;90.43;102490.34;5082314;27;45224;-62
2021/10/08 06:00:28;;;;;;;;;34.25;26.25;;;;;11.43;90.35;102494.69;5082075;27;45256;-64
2021/10/08 06:02:54;;;;;;;;;34.25;28.00;;;;;11.44;91.03;102496.41;5082447;28;45092;-69
2021/10/08 06:05:20;;;;;;;;;33.50;22.75;;;;;11.42;90.54;102493.81;5081591;27;47195;-70
2021/10/08 06:07:45;;;;;;;;;42.25;29.25;;;;;11.43;90.46;102494.69;5082035;27;45231;-66
2021/10/08 06:10:10;;;;;;;;;34.50;29.50;;;;;11.41;90.65;102491.19;5082089;27;45326;-65
2021/10/08 06:12:36;;;;;;;;;34.50;25.25;;;;;11.42;90.67;102498.16;5081564;27;45462;-66
2021/10/08 06:15:02;;;;;;;;;30.75;27.75;;;;;11.43;90.92;102503.34;5081455;27;46084;-69
2021/10/08 06:17:27;;;;;;;;;31.50;29.25;;;;;11.43;90.53;102499.88;5073994;27;45334;-69
2021/10/08 06:19:53;;;;;;;;;35.25;28.25;;;;;11.43;90.75;102511.16;5077704;28;45450;-64
2021/10/08 06:22:18;;;;;;;;;38.50;30.25;;;;;11.41;91.41;102507.72;5081998;27;45314;-62
2021/10/08 06:24:43;;;;;;;;;39.00;30.75;;;;;11.42;91.18;102511.19;5081196;27;45255;-64
2021/10/08 06:27:09;;;;;;;;;38.00;29.75;;;;;11.44;90.51;102514.63;5079490;27;45485;-63
2021/10/08 06:29:34;;;;;;;;;38.25;29.00;;;;;11.43;91.05;102511.16;5079332;27;45388;-64
2021/10/08 06:31:59;;;;;;;;;33.25;25.25;;;;;11.45;91.14;102513.75;5080469;27;45319;-64
2021/10/08 06:34:25;;;;;;;;;42.25;33.25;;;;;11.46;91.26;102516.34;5079926;27;45334;-64
2021/10/08 06:36:50;;;;;;;;;41.50;30.75;;;;;11.49;91.22;102515.47;5080166;27;45501;-63
2021/10/08 06:39:15;;;;;;;;;39.25;31.25;;;;;11.48;91.91;102519.81;5080114;27;45303;-63
2021/10/08 06:41:41;;;;;;;;;38.50;32.25;;;;;11.48;92.29;102524.16;5079505;27;45501;-64
2021/10/08 06:44:06;;;;;;;;;37.25;29.00;;;;;11.47;92.01;102517.22;5079857;27;45625;-64
2021/10/08 06:46:32;;;;;;;;;35.75;32.75;;;;;11.49;92.07;102518.94;5080271;27;45339;-65
2021/10/08 06:48:57;;;;;;;;;33.75;31.00;;;;;11.56;91.35;102522.38;5080651;27;45645;-65
2021/10/08 06:51:22;;;;;;;;;38.75;32.00;;;;;11.59;92.42;102517.16;5081110;27;45392;-65
2021/10/08 06:53:49;;;;;;;;;52.75;37.00;;;;;11.65;90.92;102526.72;5080608;27;46219;-65
2021/10/08 06:56:14;;;;;;;;;36.25;32.25;;;;;11.67;90.91;102525.84;5081708;27;45137;-65
2021/10/08 06:58:40;;;;;;;;;44.75;33.75;;;;;11.72;90.83;102529.28;5080937;27;45237;-64
2021/10/08 07:01:05;;;;;;;;;34.75;29.50;;;;;11.78;90.49;102528.38;5081091;27;45354;-65
2021/10/08 07:03:30;;;;;;;;;37.75;28.25;;;;;11.83;89.87;102529.28;5080132;27;46418;-63
2021/10/08 07:05:56;;;;;;;;;34.25;27.00;;;;;11.88;89.76;102527.53;5080128;27;45387;-62
2021/10/08 07:08:21;;;;;;;;;40.50;31.75;;;;;11.90;89.67;102525.78;5079946;27;45533;-63
2021/10/08 07:10:46;;;;;;;;;28.00;27.00;;;;;11.93;90.10;102530.09;5079926;27;45357;-63
2021/10/08 07:13:12;;;;;;;;;30.50;25.00;;;;;11.98;89.54;102531.81;5078504;27;46361;-63
2021/10/08 07:15:38;;;;;;;;;45.75;38.25;;;;;12.01;89.30;102525.72;5077833;28;45449;-63
2021/10/08 07:18:06;;;;;;;;;44.25;35.00;;;;;12.11;88.64;102538.72;5079252;27;45502;-63
2021/10/08 07:20:32;;;;;;;;;47.00;35.25;;;;;12.15;88.31;102537.81;5080421;27;45494;-64
2021/10/08 07:22:58;;;;;;;;;38.50;30.75;;;;;12.16;88.92;102536.06;5080571;27;46234;-64
2021/10/08 07:25:25;;;;;;;;;45.50;35.25;;;;;12.19;88.16;102541.25;5080447;27;45240;-63
2021/10/08 07:27:51;;;;;;;;;37.75;29.50;;;;;12.24;88.78;102542.13;5080099;27;45410;-62
2021/10/08 07:30:17;;;;;;;;;44.75;34.50;;;;;12.27;88.20;102539.50;5080799;28;45371;-63
2021/10/08 07:32:43;;;;;;;;;44.25;32.00;;;;;12.30;88.72;102547.28;5080252;27;45953;-64
2021/10/08 07:35:09;;;;;;;;;43.50;33.50;;;;;12.36;88.72;102539.44;5079920;28;45343;-62
2021/10/08 07:37:36;;;;;;;;;36.75;32.00;;;;;12.42;88.92;102541.16;5079412;27;45577;-62
2021/10/08 07:40:03;;;;;;;;;36.75;31.25;;;;;12.46;88.47;102540.25;5076841;27;45164;-62
2021/10/08 07:42:28;;;;;;;;;40.25;30.25;;;;;12.54;88.89;102543.66;5077649;28;45352;-64
2021/10/08 07:44:53;;;;;;;;;41.75;26.50;;;;;12.61;88.00;102536.66;5079607;27;45222;-64
2021/10/08 07:47:19;;;;;;;;;39.25;31.75;;;;;12.72;87.86;102546.16;5079650;27;45240;-63
2021/10/08 07:49:45;;;;;;;;;46.00;33.00;;;;;12.74;87.64;102541.78;5079461;27;45407;-64
2021/10/08 07:52:10;;;;;;;;;36.25;32.00;;;;;12.84;87.34;102536.50;5078286;27;46249;-64
2021/10/08 07:54:36;;;;;;;;;28.75;23.75;;;;;12.91;86.42;102548.63;5078044;28;45466;-64
2021/10/08 07:57:03;;;;;;;;;37.00;34.75;;;;;12.91;85.86;102544.25;5080372;27;45718;-64
2021/10/08 07:59:28;;;;;;;;;40.75;33.50;;;;;12.88;85.87;102549.50;5073070;27;45309;-65
2021/10/08 08:01:54;;;;;;;;;38.75;32.00;;;;;12.87;86.22;102537.34;5074197;28;46241;-64
2021/10/08 08:04:19;;;;;;;;;40.50;32.25;;;;;12.91;86.40;102543.41;5080326;27;45270;-64
2021/10/08 08:06:44;;;;;;;;;51.25;36.25;;;;;12.96;86.35;102547.69;5079008;27;45373;-64
2021/10/08 08:09:10;;;;;;;;;40.00;29.25;;;;;13.02;86.00;102541.56;5078216;28;45378;-64
2021/10/08 08:11:35;;;;;;;;;37.75;31.25;;;;;13.14;85.80;102537.97;5079315;27;46465;-65
2021/10/08 08:14:01;;;;;;;;;30.00;24.50;;;;;13.21;85.70;102534.44;5079594;28;45409;-64
2021/10/08 08:16:26;;;;;;;;;34.50;26.00;;;;;13.26;85.21;102537.91;5078281;27;45274;-63
2021/10/08 08:18:52;;;;;;;;;30.75;25.75;;;;;13.33;85.11;102542.16;5076545;28;45636;-64
2021/10/08 08:21:18;;;;;;;;;27.50;22.75;;;;;13.39;84.76;102536.88;5079601;27;47058;-63
2021/10/08 08:23:43;;;;;;;;;21.75;19.50;;;;;13.48;84.55;102534.19;5076099;27;45387;-67
2021/10/08 08:26:09;;;;;;;;;29.00;25.00;;;;;13.59;84.41;102531.44;5080075;28;45365;-67
2021/10/08 08:28:34;;;;;;;;;37.50;29.25;;;;;13.67;84.13;102535.69;5080088;27;45546;-69
2021/10/08 08:31:00;;;;;;;;;24.00;21.50;;;;;13.77;83.48;102538.19;5079415;27;45973;-67
2021/10/08 08:33:25;;;;;;;;;35.75;27.50;;;;;13.83;83.30;102530.31;5080014;27;45223;-68
2021/10/08 08:35:51;;;;;;;;;23.75;18.25;;;;;13.78;83.06;102537.31;5080200;27;45617;-68
2021/10/08 08:38:16;;;;;;;;;31.00;26.75;;;;;13.82;83.16;102533.81;5080256;27;45561;-62
2021/10/08 08:40:41;;;;;;;;;32.00;30.00;;;;;13.90;82.67;102531.94;5079934;27;46240;-64
2021/10/08 08:43:07;;;;;;;;;32.50;28.00;;;;;13.99;82.70;102534.44;5080056;27;45323;-69
2021/10/08 08:45:33;;;;;;;;;36.25;31.75;;;;;14.06;82.54;102525.63;5078507;27;45484;-68
2021/10/08 08:48:02;;;;;;;;;38.25;32.25;;;;;14.23;82.23;102538.50;5079182;27;45558;-68
2021/10/08 08:50:29;;;;;;;;;29.25;23.25;;;;;14.29;81.31;102536.63;5077389;28;46429;-67
2021/10/08 08:52:55;;;;;;;;;28.75;24.75;;;;;14.32;81.39;102538.34;5078269;27;45796;-66
2021/10/08 08:55:21;;;;;;;;;33.00;26.25;;;;;14.37;81.04;102539.13;5079422;27;45414;-67
2021/10/08 08:57:47;;;;;;;;;25.50;18.50;;;;;14.48;80.74;102531.19;5079988;28;45270;-68
2021/10/08 09:00:19;;;;;;;;;33.75;25.25;;;;;14.59;80.79;102530.09;5079240;27;45488;-65
2021/10/08 09:02:54;;;;;;;;;22.00;20.00;;;;;14.68;79.63;102536.09;5083076;27;45771;-66
2021/10/08 09:05:27;;;;;;;;;22.50;20.25;;;;;14.74;79.92;102525.53;5085407;27;45585;-66
2021/10/08 09:07:58;;;;;;;;;22.50;20.50;;;;;14.83;79.16;102530.63;5083542;27;45489;-66
2021/10/08 09:10:27;;;;;;;;;21.75;19.50;;;;;14.93;78.64;102526.09;5079346;27;45378;-66
2021/10/08 09:12:54;;;;;;;;;19.75;17.00;;;;;15.04;77.80;102532.88;5079278;27;45182;-62
2021/10/08 09:15:20;;;;;;;;;22.75;19.50;;;;;15.21;76.83;102528.19;5079384;27;45306;-62
2021/10/08 09:17:46;;;;;;;;;26.00;17.25;;;;;15.32;76.46;102533.25;5069459;27;45198;-62
2021/10/08 09:20:20;;;;;;;;;25.50;20.25;;;;;15.37;76.44;102528.75;5078111;28;45283;-63
2021/10/08 09:22:52;;;;;;;;;21.25;16.75;;;;;15.44;75.87;102525.16;5079612;28;45318;-64
2021/10/08 09:25:22;;;;;;;;;24.50;21.50;;;;;15.53;75.60;102524.97;5079367;27;45247;-65
2021/10/08 09:27:49;;;;;;;;;25.00;20.50;;;;;15.65;75.75;102525.66;5080884;27;45382;-65
2021/10/08 09:30:14;;;;;;;;;25.25;21.50;;;;;15.74;76.04;102517.59;5081738;27;47138;-66
2021/10/08 09:32:46;;;;;;;;;18.50;16.75;;;;;15.84;74.50;102508.66;5079971;27;45423;-65
2021/10/08 09:35:15;;;;;;;;;13.00;11.75;;;;;15.94;73.80;102509.31;5077167;28;45418;-66
2021/10/08 09:37:41;;;;;;;;;18.00;17.50;;;;;16.00;74.69;102509.16;5082151;27;45345;-67
2021/10/08 09:40:27;;;;;;;;;19.25;18.25;;;;;16.07;74.33;102508.16;5082159;27;46263;-64
2021/10/08 09:43:01;;;;;;;;;15.00;12.25;;;;;16.16;71.67;102510.56;5097391;27;45300;-66
2021/10/08 09:45:44;;;;;;;;;23.75;20.00;;;;;16.28;73.92;102499.81;5081459;27;45412;-66
2021/10/08 09:48:11;;;;;;;;;22.50;13.50;;;;;16.43;73.04;102502.06;5080749;28;45447;-67
2021/10/08 09:50:38;;;;;;;;;22.25;19.75;;;;;16.63;73.28;102506.00;5081830;27;45436;-65
2021/10/08 09:53:09;;;;;;;;;15.00;14.00;;;;;17.42;73.61;102497.78;5082462;27;45701;-65
2021/10/08 09:55:34;;;;;;;;;17.75;16.00;;;;;18.68;70.11;102503.66;5081869;27;45383;-66
2021/10/08 09:58:00;;;;;;;;;16.25;11.25;;;;;19.02;63.54;102492.81;5082484;27;45310;-75
2021/10/08 10:00:50;;;;;;;;;12.00;10.50;;;;;18.90;63.96;102495.88;5081966;27;46157;-73
2021/10/08 10:03:17;;;;;;;;;14.00;12.00;;;;;18.77;63.12;102488.38;5082014;27;45286;-71
2021/10/08 10:05:43;;;;;;;;;13.50;12.75;;;;;19.56;66.20;102486.50;5081112;28;45352;-72
2021/10/08 10:08:09;;;;;;;;;15.00;13.50;;;;;20.84;61.39;102482.25;5082281;27;45267;-73
2021/10/08 10:10:37;;;;;;;;;8.50;8.00;;;;;21.28;57.96;102482.13;5081394;28;46160;-72
2021/10/08 10:13:05;;;;;;;;;11.75;10.25;;;;;21.09;60.50;102491.78;5081531;27;45602;-69
2021/10/08 10:15:34;;;;;;;;;10.75;10.00;;;;;21.05;60.44;102482.25;5082195;27;45404;-69
2021/10/08 10:18:03;;;;;;;;;12.25;11.50;;;;;21.75;56.75;102479.09;5070278;27;45439;-69
2021/10/08 10:20:32;;;;;;;;;12.50;12.50;;;;;21.58;58.35;102476.38;5081718;27;46994;-69
2021/10/08 10:22:58;;;;;;;;;11.50;6.75;;;;;20.99;56.40;102480.72;5082086;27;45436;-69
2021/10/08 10:25:24;;;;;;;;;11.25;8.75;;;;;20.50;57.00;102471.41;5082236;27;45329;-70
2021/10/08 10:27:50;;;;;;;;;13.25;8.75;;;;;20.33;55.66;102470.25;5081664;27;45409;-70
2021/10/08 10:30:18;;;;;;;;;12.75;9.75;;;;;20.45;56.99;102465.44;5081657;27;46182;-71
2021/10/08 10:32:45;;;;;;;;;6.75;6.25;;;;;20.60;58.29;102459.50;5081835;27;45275;-67
2021/10/08 10:35:46;;;;;;;;;14.25;9.75;;;;;20.71;58.32;102451.13;5081298;27;45359;-68
2021/10/08 10:38:30;;;;;;;;;14.50;8.25;;;;;20.60;54.96;102462.16;5068974;28;45169;-65
2021/10/08 10:41:04;;;;;;;;;12.50;11.00;;;;;20.40;56.88;102462.94;5081360;28;46300;-63
2021/10/08 10:43:35;;;;;;;;;11.50;11.50;;;;;20.26;56.89;102466.16;5081522;27;45372;-64
2021/10/08 10:52:04;;;;;;;;;8.75;8.50;;;;;21.73;49.48;102465.09;5081634;27;45406;-68
2021/10/08 10:54:40;;;;;;;;;15.75;10.75;;;;;22.22;54.53;102463.63;5081013;28;45468;-68
2021/10/08 10:57:07;;;;;;;;;5.00;3.75;;;;;22.57;53.36;102464.50;5079127;28;45439;-66
2021/10/08 10:59:36;;;;;;;;;13.00;10.00;;;;;21.98;52.78;102462.97;5081298;27;45558;-66
2021/10/08 11:05:20;;;;;;;;;9.00;8.00;;;;;20.96;51.57;102459.72;5080348;27;45634;-67
2021/10/08 11:08:10;;;;;;;;;6.00;6.00;;;;;20.45;52.78;102462.81;5081104;27;45302;-68
2021/10/08 11:10:41;;;;;;;;;6.00;6.00;;;;;20.08;52.33;102451.06;5080723;28;45577;-66
2021/10/08 11:13:38;;;;;;;;;7.50;7.50;;;;;19.84;53.84;102454.69;5080089;27;46333;-66
2021/10/08 11:16:10;;;;;;;;;8.75;8.75;;;;;19.69;54.53;102448.22;5077035;28;45582;-66